Time;durP1;ratioP1;P1;durP2;ratioP2;P2;SDS_P1;SDS_P2;PMS_P1;PMS_P2;Temp;Humidity;BMP_temperature;BMP_pressure;BME280_temperature;BME280_humidity;BME280_pressure;Samples;Min_cycle;Max_cycle;Signal;HPM_P1;HPM_P2
2022/11/22 00:00:13;;;;;;;8.23;2.08;;;8.80;99.90;;;;;;2078248;28;20030;-72
2022/11/22 00:01:14;;;;;;;4.63;2.03;;;8.80;99.90;;;;;;2077719;28;20125;-72
2022/11/22 00:02:14;;;;;;;6.57;2.03;;;8.80;99.90;;;;;;2077488;28;20095;-72
2022/11/22 00:03:15;;;;;;;3.28;1.45;;;8.80;99.90;;;;;;2076651;28;20512;-72
2022/11/22 00:04:15;;;;;;;3.53;1.48;;;8.80;99.90;;;;;;2078031;28;20025;-72
2022/11/22 00:05:16;;;;;;;3.22;1.67;;;8.80;99.90;;;;;;2077600;28;20032;-72
2022/11/22 00:06:16;;;;;;;5.43;2.25;;;8.80;99.90;;;;;;2077419;28;20022;-72
2022/11/22 00:07:17;;;;;;;4.35;1.65;;;8.80;99.90;;;;;;2075449;28;20113;-72
2022/11/22 00:08:17;;;;;;;4.93;1.60;;;8.80;99.90;;;;;;2075152;28;20040;-72
2022/11/22 00:09:18;;;;;;;6.25;1.92;;;8.80;99.90;;;;;;2075919;28;20137;-72
2022/11/22 00:10:18;;;;;;;3.58;1.70;;;8.80;99.90;;;;;;2077125;28;20017;-72
2022/11/22 00:11:19;;;;;;;4.72;1.83;;;8.80;99.90;;;;;;2075567;28;20026;-72
2022/11/22 00:12:20;;;;;;;5.72;1.75;;;8.70;99.90;;;;;;2076508;28;20017;-72
2022/11/22 00:13:20;;;;;;;3.65;1.60;;;8.70;99.90;;;;;;2077782;28;20668;-72
2022/11/22 00:14:21;;;;;;;5.10;1.85;;;8.70;99.90;;;;;;2075582;28;20029;-72
2022/11/22 00:15:21;;;;;;;3.35;1.58;;;8.70;99.90;;;;;;2076784;28;20024;-72
2022/11/22 00:16:22;;;;;;;4.50;2.03;;;8.70;99.90;;;;;;2076597;28;20129;-72
2022/11/22 00:17:22;;;;;;;7.05;2.65;;;8.70;99.90;;;;;;2077113;28;20032;-72
2022/11/22 00:18:23;;;;;;;4.75;2.05;;;8.70;99.90;;;;;;2078738;28;20060;-72
2022/11/22 00:19:23;;;;;;;3.63;1.73;;;8.70;99.90;;;;;;2076878;28;20556;-72
2022/11/22 00:20:24;;;;;;;4.43;1.90;;;8.70;99.90;;;;;;2076712;28;20285;-72
2022/11/22 00:21:24;;;;;;;6.00;1.80;;;8.70;99.90;;;;;;2077697;28;20031;-72
2022/11/22 00:22:25;;;;;;;6.82;2.20;;;8.70;99.90;;;;;;2076212;28;20473;-72
2022/11/22 00:23:26;;;;;;;4.05;1.75;;;8.70;99.90;;;;;;2077090;28;20075;-72
2022/11/22 00:24:26;;;;;;;4.53;1.63;;;8.70;99.90;;;;;;2077400;28;20109;-72
2022/11/22 00:25:27;;;;;;;4.78;1.55;;;8.70;99.90;;;;;;2076622;28;20025;-72
2022/11/22 00:26:27;;;;;;;3.58;2.05;;;8.70;99.90;;;;;;2078694;28;20034;-72
2022/11/22 00:27:28;;;;;;;5.32;1.58;;;8.70;99.90;;;;;;2077198;28;20504;-72
2022/11/22 00:28:28;;;;;;;5.07;1.70;;;8.70;99.90;;;;;;2075293;28;20563;-72
2022/11/22 00:29:29;;;;;;;3.38;1.52;;;8.70;99.90;;;;;;2077058;28;20401;-72
2022/11/22 00:30:29;;;;;;;3.15;1.35;;;8.70;99.90;;;;;;2077169;28;20120;-72
2022/11/22 00:31:30;;;;;;;4.00;1.42;;;8.70;99.90;;;;;;2082655;28;20022;-72
2022/11/22 00:32:30;;;;;;;4.25;1.52;;;8.70;99.90;;;;;;2083565;28;20017;-72
2022/11/22 00:33:31;;;;;;;4.65;1.63;;;8.70;99.90;;;;;;2074997;28;20029;-72
2022/11/22 00:34:32;;;;;;;3.38;1.50;;;8.70;99.90;;;;;;2075592;28;20056;-72
2022/11/22 00:35:32;;;;;;;5.00;1.73;;;8.70;99.90;;;;;;2076125;28;20048;-72
2022/11/22 00:36:33;;;;;;;3.85;1.98;;;8.70;99.90;;;;;;2075413;28;20036;-72
2022/11/22 00:37:33;;;;;;;4.47;1.55;;;8.70;99.90;;;;;;2077019;28;20056;-72
2022/11/22 00:38:34;;;;;;;5.60;1.90;;;8.70;99.90;;;;;;2077093;28;20114;-72
2022/11/22 00:39:34;;;;;;;2.55;1.33;;;8.70;99.90;;;;;;2084749;28;20029;-72
2022/11/22 00:40:35;;;;;;;4.20;1.60;;;8.70;99.90;;;;;;2084123;28;20084;-72
2022/11/22 00:41:35;;;;;;;3.20;1.55;;;8.70;99.90;;;;;;2075069;28;20096;-72
2022/11/22 00:42:36;;;;;;;3.40;1.63;;;8.70;99.90;;;;;;2075016;28;20018;-72
2022/11/22 00:43:36;;;;;;;3.80;1.60;;;8.80;99.90;;;;;;2072915;28;20384;-72
2022/11/22 00:44:37;;;;;;;2.70;1.33;;;8.70;99.90;;;;;;2084006;28;20013;-72
2022/11/22 00:45:40;;;;;;;3.38;1.40;;;8.70;99.90;;;;;;2084852;28;20029;-72
2022/11/22 00:46:40;;;;;;;4.80;1.73;;;8.70;99.90;;;;;;2076865;28;20105;-72
2022/11/22 00:47:41;;;;;;;4.88;1.90;;;8.70;99.90;;;;;;2077544;28;20028;-72
2022/11/22 00:48:41;;;;;;;4.07;1.88;;;8.80;99.90;;;;;;2077005;28;20025;-72
2022/11/22 00:49:42;;;;;;;4.85;1.80;;;8.70;99.90;;;;;;2077056;28;20534;-72
2022/11/22 00:50:42;;;;;;;2.60;1.48;;;8.70;99.90;;;;;;2075918;28;20021;-72
2022/11/22 00:51:43;;;;;;;2.90;1.50;;;8.80;99.90;;;;;;2075479;28;20033;-72
2022/11/22 00:52:43;;;;;;;4.70;1.80;;;8.70;99.90;;;;;;2075779;28;20125;-72
2022/11/22 00:53:44;;;;;;;2.97;1.38;;;8.80;99.90;;;;;;2076686;28;20465;-72
2022/11/22 00:54:44;;;;;;;2.13;1.42;;;8.80;99.90;;;;;;2076117;28;20037;-72
2022/11/22 00:55:45;;;;;;;5.35;1.83;;;8.80;99.90;;;;;;2076622;28;20476;-72
2022/11/22 00:56:45;;;;;;;2.67;1.30;;;8.80;99.90;;;;;;2078448;28;20095;-72
2022/11/22 00:57:46;;;;;;;6.78;1.75;;;8.80;99.90;;;;;;2075345;28;20057;-72
2022/11/22 00:58:46;;;;;;;3.35;1.70;;;8.80;99.90;;;;;;2077057;28;20048;-72
2022/11/22 00:59:47;;;;;;;8.68;1.73;;;8.80;99.90;;;;;;2077799;28;20025;-72
2022/11/22 01:00:49;;;;;;;5.47;1.60;;;8.80;99.90;;;;;;2074979;28;20041;-72
2022/11/22 01:01:49;;;;;;;4.60;1.42;;;8.80;99.90;;;;;;2076084;28;20037;-72
2022/11/22 01:02:50;;;;;;;2.65;1.45;;;8.80;99.90;;;;;;2074805;28;20084;-72
2022/11/22 01:03:50;;;;;;;4.63;2.00;;;8.70;99.90;;;;;;2076510;28;20144;-72
2022/11/22 01:04:51;;;;;;;4.40;1.67;;;8.70;99.90;;;;;;2076377;28;20087;-72
2022/11/22 01:05:52;;;;;;;4.30;1.55;;;8.70;99.90;;;;;;2075967;28;20022;-72
2022/11/22 01:06:52;;;;;;;3.00;1.65;;;8.70;99.90;;;;;;2078231;28;20030;-72
2022/11/22 01:07:53;;;;;;;2.47;1.42;;;8.70;99.90;;;;;;2078283;28;20028;-72
2022/11/22 01:08:53;;;;;;;4.53;1.75;;;8.70;99.90;;;;;;2075474;28;20026;-72
2022/11/22 01:09:54;;;;;;;4.38;1.85;;;8.70;99.90;;;;;;2076126;28;20026;-72
2022/11/22 01:10:58;;;;;;;3.92;1.50;;;8.70;99.90;;;;;;2075325;28;20019;-72
2022/11/22 01:11:58;;;;;;;3.45;1.85;;;8.70;99.90;;;;;;2085194;28;20029;-72
2022/11/22 01:12:59;;;;;;;3.75;1.33;;;8.70;99.90;;;;;;2084843;28;20873;-72
2022/11/22 01:14:00;;;;;;;3.50;2.10;;;8.70;99.90;;;;;;2078268;28;20147;-72
2022/11/22 01:15:02;;;;;;;3.72;1.65;;;8.80;99.90;;;;;;2074950;28;20147;-72
2022/11/22 01:16:06;;;;;;;4.63;1.70;;;8.80;99.90;;;;;;2077749;28;20065;-72
2022/11/22 01:17:06;;;;;;;2.92;1.40;;;8.80;99.90;;;;;;2077426;28;20021;-72
2022/11/22 01:18:07;;;;;;;4.68;1.77;;;8.80;99.90;;;;;;2075272;28;20114;-72
2022/11/22 01:19:08;;;;;;;3.38;1.70;;;8.80;99.90;;;;;;2075264;28;20033;-72
2022/11/22 01:20:09;;;;;;;4.80;1.65;;;8.80;99.90;;;;;;2077942;28;20681;-72
2022/11/22 01:21:10;;;;;;;4.15;2.00;;;8.80;99.90;;;;;;2076586;28;20022;-72
2022/11/22 01:22:10;;;;;;;2.35;1.48;;;8.80;99.90;;;;;;2073818;28;20176;-72
2022/11/22 01:23:11;;;;;;;4.82;1.70;;;8.80;99.90;;;;;;2077696;28;20117;-72
2022/11/22 01:24:11;;;;;;;2.40;1.52;;;8.80;99.90;;;;;;2078170;28;20033;-72
2022/11/22 01:25:12;;;;;;;3.90;1.83;;;8.80;99.90;;;;;;2076259;28;20378;-72
2022/11/22 01:26:12;;;;;;;3.13;1.67;;;8.80;99.90;;;;;;2076152;28;20022;-72
2022/11/22 01:27:13;;;;;;;4.32;1.88;;;8.80;99.90;;;;;;2077457;28;20041;-72
2022/11/22 01:28:15;;;;;;;3.75;1.77;;;8.80;99.90;;;;;;2074881;28;20049;-72
2022/11/22 01:29:16;;;;;;;3.50;1.52;;;8.80;99.90;;;;;;2076432;28;20025;-72
2022/11/22 01:30:17;;;;;;;3.28;1.63;;;8.80;99.90;;;;;;2075321;28;20058;-72
2022/11/22 01:31:17;;;;;;;5.45;2.03;;;8.80;99.90;;;;;;2078074;28;20477;-72
2022/11/22 01:32:18;;;;;;;6.07;2.17;;;8.80;99.90;;;;;;2076310;28;20025;-72
2022/11/22 01:33:19;;;;;;;5.28;1.75;;;8.80;99.90;;;;;;2076726;28;20049;-72
2022/11/22 01:34:20;;;;;;;4.05;1.80;;;8.80;99.90;;;;;;2075510;28;20037;-72
2022/11/22 01:35:20;;;;;;;4.60;1.70;;;8.80;99.90;;;;;;2076505;28;20029;-72
2022/11/22 01:36:21;;;;;;;3.03;2.15;;;8.80;99.90;;;;;;2077385;28;20605;-72
2022/11/22 01:37:22;;;;;;;5.20;2.00;;;8.80;99.90;;;;;;2076900;28;20549;-72
2022/11/22 01:38:22;;;;;;;4.25;2.08;;;8.80;99.90;;;;;;2076256;28;20096;-72
2022/11/22 01:39:23;;;;;;;4.28;1.58;;;8.80;99.90;;;;;;2076474;28;20060;-72
2022/11/22 01:40:24;;;;;;;2.42;1.55;;;8.80;99.90;;;;;;2077823;28;20030;-72
2022/11/22 01:41:24;;;;;;;3.90;1.80;;;8.80;99.90;;;;;;2078214;28;20022;-72
2022/11/22 01:42:49;;;;;;;4.13;2.00;;;8.80;99.90;;;;;;2077549;28;20114;-72
2022/11/22 01:43:50;;;;;;;3.22;1.58;;;8.80;99.90;;;;;;2077582;28;20025;-72
2022/11/22 01:44:52;;;;;;;2.67;1.63;;;8.80;99.90;;;;;;2076278;28;20114;-72
2022/11/22 01:46:01;;;;;;;2.95;1.77;;;8.80;99.90;;;;;;2078201;28;20369;-72
2022/11/22 01:47:09;;;;;;;3.13;2.08;;;8.80;99.90;;;;;;2079074;28;20013;-72
2022/11/22 01:48:17;;;;;;;3.30;1.52;;;8.80;99.90;;;;;;2078341;28;20025;-72
2022/11/22 01:49:17;;;;;;;6.18;1.60;;;8.80;99.90;;;;;;2077478;28;20021;-72
2022/11/22 01:50:18;;;;;;;2.95;1.60;;;8.80;99.90;;;;;;2078961;28;20053;-72
2022/11/22 01:51:31;;;;;;;4.10;1.90;;;8.80;99.90;;;;;;2078844;28;20032;-72
2022/11/22 01:52:33;;;;;;;5.07;1.70;;;8.80;99.90;;;;;;2077656;28;20127;-72
2022/11/22 01:53:37;;;;;;;4.05;1.77;;;8.80;99.90;;;;;;2078107;28;20017;-72
2022/11/22 01:54:41;;;;;;;5.13;2.00;;;8.80;99.90;;;;;;2077634;28;20021;-72
2022/11/22 01:55:43;;;;;;;3.67;2.15;;;8.80;99.90;;;;;;2077919;28;20532;-72
2022/11/22 01:56:49;;;;;;;6.00;2.15;;;8.80;99.90;;;;;;2078278;28;20022;-72
2022/11/22 01:57:49;;;;;;;4.95;1.73;;;8.80;99.90;;;;;;2078900;28;20040;-72
2022/11/22 01:58:56;;;;;;;3.38;1.50;;;8.80;99.90;;;;;;2080771;28;20092;-72
2022/11/22 02:00:00;;;;;;;4.70;2.00;;;8.80;99.90;;;;;;2077624;28;20018;-72
2022/11/22 02:01:01;;;;;;;4.97;1.95;;;8.90;99.90;;;;;;2075822;28;20029;-72
2022/11/22 02:02:03;;;;;;;3.70;1.77;;;8.80;99.90;;;;;;2078559;28;20457;-72
2022/11/22 02:03:06;;;;;;;3.97;1.92;;;8.80;99.90;;;;;;2076748;28;20033;-72
2022/11/22 02:04:11;;;;;;;6.18;1.98;;;8.90;99.90;;;;;;2077098;28;20116;-72
2022/11/22 02:05:17;;;;;;;3.75;1.80;;;8.90;99.90;;;;;;2077337;28;21263;-72
2022/11/22 02:06:19;;;;;;;2.90;1.67;;;8.90;99.90;;;;;;2075123;28;20026;-72
2022/11/22 02:07:33;;;;;;;5.25;1.90;;;8.90;99.90;;;;;;2077229;28;20087;-72
2022/11/22 02:08:57;;;;;;;3.50;1.75;;;8.90;99.90;;;;;;2078948;28;20017;-72
2022/11/22 02:09:58;;;;;;;3.65;1.52;;;8.80;99.90;;;;;;2076960;28;20113;-72
2022/11/22 02:11:01;;;;;;;5.93;1.85;;;8.80;99.90;;;;;;2076948;28;20029;-72
2022/11/22 02:12:05;;;;;;;3.85;1.70;;;8.80;99.90;;;;;;2076769;28;20175;-72
2022/11/22 02:13:06;;;;;;;4.03;1.80;;;8.80;99.90;;;;;;2078186;28;20077;-72
2022/11/22 02:14:08;;;;;;;2.90;1.65;;;8.80;99.90;;;;;;2078208;28;20029;-72
2022/11/22 02:15:10;;;;;;;4.70;1.80;;;8.90;99.90;;;;;;2077875;28;20037;-72
2022/11/22 02:16:11;;;;;;;3.65;1.70;;;8.90;99.90;;;;;;2078330;28;20029;-72
2022/11/22 02:17:11;;;;;;;3.30;1.60;;;8.90;99.90;;;;;;2076529;28;20112;-72
2022/11/22 02:18:12;;;;;;;2.80;1.40;;;8.80;99.90;;;;;;2077605;28;20033;-72
2022/11/22 02:19:18;;;;;;;4.28;1.63;;;8.90;99.90;;;;;;2077497;28;20072;-72
2022/11/22 02:20:19;;;;;;;5.60;2.40;;;8.80;99.90;;;;;;2077222;28;20080;-72
2022/11/22 02:21:19;;;;;;;5.68;2.45;;;8.80;99.90;;;;;;2078159;28;20079;-72
2022/11/22 02:22:47;;;;;;;4.85;2.15;;;8.80;99.90;;;;;;2076295;28;20457;-72
2022/11/22 02:24:29;;;;;;;6.38;2.10;;;8.90;99.90;;;;;;2077077;28;20033;-72
2022/11/22 02:25:35;;;;;;;5.55;2.17;;;8.80;99.90;;;;;;2071699;28;20088;-72
2022/11/22 02:26:36;;;;;;;6.38;1.70;;;8.80;99.90;;;;;;2076615;28;20116;-72
2022/11/22 02:27:37;;;;;;;3.75;2.15;;;8.80;99.90;;;;;;2081893;28;20022;-72
2022/11/22 02:28:39;;;;;;;4.10;1.90;;;8.80;99.90;;;;;;2083011;28;20050;-72
2022/11/22 02:29:40;;;;;;;3.30;1.90;;;8.80;99.90;;;;;;2078218;28;20056;-72
2022/11/22 02:30:41;;;;;;;7.88;2.28;;;8.80;99.90;;;;;;2077874;28;20365;-72
2022/11/22 02:31:45;;;;;;;3.30;1.80;;;8.80;99.90;;;;;;2076307;28;20025;-72
2022/11/22 02:32:45;;;;;;;6.70;2.17;;;8.80;99.90;;;;;;2078075;28;20036;-72
2022/11/22 02:33:46;;;;;;;5.95;1.75;;;8.80;99.90;;;;;;2078394;28;20518;-72
2022/11/22 02:34:49;;;;;;;7.07;2.15;;;8.90;99.90;;;;;;2076617;28;20029;-72
2022/11/22 02:35:50;;;;;;;7.93;2.53;;;8.80;99.90;;;;;;2076755;28;20389;-72
2022/11/22 02:36:52;;;;;;;10.95;2.55;;;8.80;99.90;;;;;;2077297;28;20025;-72
2022/11/22 02:37:58;;;;;;;6.70;2.47;;;8.90;99.90;;;;;;2078006;28;20026;-72
2022/11/22 02:38:59;;;;;;;6.32;2.38;;;8.90;99.90;;;;;;2077038;28;20098;-72
2022/11/22 02:40:03;;;;;;;4.43;2.10;;;8.90;99.90;;;;;;2076428;28;20076;-72
2022/11/22 02:41:10;;;;;;;6.53;2.13;;;8.90;99.90;;;;;;2077373;28;20025;-72
2022/11/22 02:42:12;;;;;;;4.38;2.03;;;8.90;99.90;;;;;;2076355;28;20041;-72
2022/11/22 02:43:17;;;;;;;7.35;2.45;;;8.90;99.90;;;;;;2076370;28;20029;-72
2022/11/22 02:44:19;;;;;;;6.82;2.03;;;8.90;99.90;;;;;;2076187;28;20404;-72
2022/11/22 02:45:19;;;;;;;8.32;2.38;;;8.90;99.90;;;;;;2077278;28;20418;-72
2022/11/22 02:46:22;;;;;;;5.93;2.40;;;8.90;99.90;;;;;;2077048;28;20043;-72
2022/11/22 02:47:22;;;;;;;4.30;2.28;;;8.90;99.90;;;;;;2077714;28;20026;-72
2022/11/22 02:48:23;;;;;;;4.65;2.50;;;8.90;99.90;;;;;;2073798;28;20034;-72
2022/11/22 02:49:24;;;;;;;5.22;2.15;;;8.90;99.90;;;;;;2074813;28;20400;-72
2022/11/22 02:50:24;;;;;;;5.25;2.45;;;9.00;99.90;;;;;;2076339;28;20080;-72
2022/11/22 02:51:25;;;;;;;4.65;1.98;;;8.90;99.90;;;;;;2076590;28;20026;-72
2022/11/22 02:52:26;;;;;;;7.25;2.45;;;9.00;99.90;;;;;;2077321;28;20113;-72
2022/11/22 02:53:29;;;;;;;5.93;2.17;;;9.00;99.90;;;;;;2078811;28;20026;-72
2022/11/22 02:54:30;;;;;;;4.60;2.13;;;9.00;99.90;;;;;;2075529;28;20029;-72
2022/11/22 02:55:31;;;;;;;6.63;2.10;;;9.00;99.90;;;;;;2076393;28;20063;-72
2022/11/22 02:56:31;;;;;;;5.38;2.40;;;9.00;99.90;;;;;;2077341;28;20401;-72
2022/11/22 02:57:32;;;;;;;8.93;2.33;;;9.00;99.90;;;;;;2077643;28;20029;-72
2022/11/22 02:58:32;;;;;;;6.72;2.60;;;9.00;99.90;;;;;;2076926;28;20040;-72
2022/11/22 02:59:33;;;;;;;7.55;2.53;;;9.00;99.90;;;;;;2076998;28;20115;-72
2022/11/22 03:00:36;;;;;;;7.35;2.47;;;9.00;99.90;;;;;;2076173;28;20432;-72
2022/11/22 03:01:37;;;;;;;7.15;2.55;;;9.00;99.90;;;;;;2076097;28;20470;-72
2022/11/22 03:02:37;;;;;;;8.32;2.60;;;9.00;99.90;;;;;;2075452;28;20397;-72
2022/11/22 03:03:38;;;;;;;8.57;2.50;;;9.00;99.90;;;;;;2075704;28;20101;-72
2022/11/22 03:04:38;;;;;;;7.13;2.20;;;9.00;99.90;;;;;;2076071;28;20273;-72
2022/11/22 03:05:39;;;;;;;7.15;2.42;;;9.00;99.90;;;;;;2077716;28;20025;-72
2022/11/22 03:06:39;;;;;;;7.53;2.50;;;9.00;99.90;;;;;;2077335;28;20089;-72
2022/11/22 03:07:40;;;;;;;5.47;2.63;;;9.00;99.90;;;;;;2076274;28;20021;-72
2022/11/22 03:08:40;;;;;;;7.50;2.47;;;9.00;99.90;;;;;;2077010;28;20057;-72
2022/11/22 03:09:41;;;;;;;8.10;2.65;;;8.90;99.90;;;;;;2075386;28;20040;-72
2022/11/22 03:10:41;;;;;;;8.90;2.63;;;8.90;99.90;;;;;;2083926;28;20013;-72
2022/11/22 03:11:42;;;;;;;7.97;3.38;;;8.90;99.90;;;;;;2084132;28;20040;-72
2022/11/22 03:12:42;;;;;;;7.40;2.45;;;8.90;99.90;;;;;;2074941;28;20469;-72
2022/11/22 03:13:43;;;;;;;8.57;2.47;;;9.00;99.90;;;;;;2072153;28;20084;-72
2022/11/22 03:14:43;;;;;;;10.32;3.35;;;8.90;99.90;;;;;;2076587;28;20030;-72
2022/11/22 03:15:47;;;;;;;10.05;2.78;;;8.90;99.90;;;;;;2076510;28;20140;-72
2022/11/22 03:16:48;;;;;;;6.47;2.17;;;9.00;99.90;;;;;;2077326;28;20095;-72
2022/11/22 03:17:48;;;;;;;12.27;2.97;;;8.90;99.90;;;;;;2077641;28;20473;-72
2022/11/22 03:18:49;;;;;;;8.45;2.17;;;8.90;99.90;;;;;;2076454;28;20064;-72
2022/11/22 03:19:49;;;;;;;8.25;2.83;;;8.90;99.90;;;;;;2077117;28;20030;-72
2022/11/22 03:20:50;;;;;;;10.32;2.90;;;8.90;99.90;;;;;;2075567;28;20085;-72
2022/11/22 03:21:51;;;;;;;9.20;2.38;;;9.00;99.90;;;;;;2072944;28;20034;-72
2022/11/22 03:22:52;;;;;;;10.05;3.15;;;9.00;99.90;;;;;;2076053;28;20084;-72
2022/11/22 03:23:53;;;;;;;7.18;2.90;;;9.00;99.90;;;;;;2076302;28;20037;-72
2022/11/22 03:24:54;;;;;;;8.93;2.67;;;9.00;99.90;;;;;;2076627;28;20642;-72
2022/11/22 03:25:54;;;;;;;8.32;2.63;;;9.00;99.90;;;;;;2077637;28;20104;-72
2022/11/22 03:26:55;;;;;;;6.22;2.05;;;9.00;99.90;;;;;;2075708;28;20044;-72
2022/11/22 03:27:55;;;;;;;9.63;2.58;;;9.00;99.90;;;;;;2075995;28;20024;-72
2022/11/22 03:28:56;;;;;;;10.68;3.00;;;9.00;99.90;;;;;;2077749;28;20024;-72
2022/11/22 03:29:56;;;;;;;8.45;2.42;;;9.00;99.90;;;;;;2076873;28;20041;-72
2022/11/22 03:30:57;;;;;;;10.32;2.90;;;9.00;99.90;;;;;;2076594;28;20354;-72
2022/11/22 03:31:57;;;;;;;9.45;2.70;;;9.00;99.90;;;;;;2073642;28;20158;-72
2022/11/22 03:32:58;;;;;;;5.65;2.05;;;9.00;99.90;;;;;;2075740;28;20038;-72
2022/11/22 03:33:58;;;;;;;8.27;2.72;;;9.00;99.90;;;;;;2076001;28;20488;-72
2022/11/22 03:34:59;;;;;;;7.35;2.92;;;9.00;99.90;;;;;;2073330;28;20029;-72
2022/11/22 03:36:00;;;;;;;7.88;2.30;;;9.00;99.90;;;;;;2076224;28;20025;-72
2022/11/22 03:37:01;;;;;;;10.55;2.88;;;9.00;99.90;;;;;;2074914;28;20579;-72
2022/11/22 03:38:02;;;;;;;8.88;2.90;;;9.00;99.90;;;;;;2077253;28;20440;-72
2022/11/22 03:39:02;;;;;;;9.32;2.30;;;9.00;99.90;;;;;;2066987;28;20488;-72
2022/11/22 03:40:04;;;;;;;6.68;2.60;;;8.90;99.90;;;;;;2074991;28;20079;-72
2022/11/22 03:41:04;;;;;;;10.13;2.97;;;9.00;99.90;;;;;;2076174;28;20067;-72
2022/11/22 03:42:05;;;;;;;6.82;2.88;;;9.00;99.90;;;;;;2077007;28;20037;-72
2022/11/22 03:43:05;;;;;;;9.73;2.67;;;8.90;99.90;;;;;;2075922;28;20029;-72
2022/11/22 03:44:06;;;;;;;7.90;2.20;;;9.00;99.90;;;;;;2076325;28;20137;-72
2022/11/22 03:45:07;;;;;;;5.47;2.40;;;8.90;99.90;;;;;;2074540;28;20026;-72
2022/11/22 03:46:14;;;;;;;9.50;2.55;;;9.00;99.90;;;;;;2075143;28;20038;-72
2022/11/22 03:47:14;;;;;;;11.05;2.92;;;8.90;99.90;;;;;;2076438;28;20025;-72
2022/11/22 03:48:15;;;;;;;10.98;3.58;;;8.90;99.90;;;;;;2076171;28;20040;-72
2022/11/22 03:49:15;;;;;;;8.98;2.85;;;9.00;99.90;;;;;;2077891;28;20025;-72
2022/11/22 03:50:16;;;;;;;10.82;2.30;;;9.00;99.90;;;;;;2077529;28;20033;-72
2022/11/22 03:51:17;;;;;;;11.25;2.45;;;8.90;99.90;;;;;;2076673;28;20113;-72
2022/11/22 03:52:17;;;;;;;6.50;2.33;;;8.90;99.90;;;;;;2076852;28;20026;-72
2022/11/22 03:53:18;;;;;;;6.75;2.60;;;8.90;99.90;;;;;;2077050;28;20029;-72
2022/11/22 03:54:18;;;;;;;8.57;2.67;;;8.90;99.90;;;;;;2077265;28;20029;-72
2022/11/22 03:55:19;;;;;;;7.82;2.72;;;8.90;99.90;;;;;;2075836;28;20029;-72
2022/11/22 03:56:19;;;;;;;6.78;2.33;;;8.90;99.90;;;;;;2075848;28;20136;-72
2022/11/22 03:57:20;;;;;;;7.88;2.40;;;8.90;99.90;;;;;;2075971;28;20057;-72
2022/11/22 03:58:20;;;;;;;8.38;2.15;;;8.90;99.90;;;;;;2077464;28;20033;-72
2022/11/22 03:59:21;;;;;;;7.63;2.63;;;8.90;99.90;;;;;;2076605;28;20041;-72
2022/11/22 04:00:22;;;;;;;10.02;3.20;;;8.90;99.90;;;;;;2076395;28;20517;-72
2022/11/22 04:01:23;;;;;;;7.80;2.20;;;8.90;99.90;;;;;;2076494;28;20033;-72
2022/11/22 04:02:23;;;;;;;11.52;2.88;;;8.90;99.90;;;;;;2074678;28;20072;-72
2022/11/22 04:03:24;;;;;;;11.32;2.63;;;8.90;99.90;;;;;;2075996;28;20025;-72
2022/11/22 04:04:25;;;;;;;14.20;2.63;;;8.90;99.90;;;;;;2084341;28;20389;-72
2022/11/22 04:05:25;;;;;;;9.45;2.58;;;8.90;99.90;;;;;;2075485;28;20033;-72
2022/11/22 04:06:26;;;;;;;7.57;2.70;;;8.90;99.90;;;;;;2076521;28;20037;-72
2022/11/22 04:07:27;;;;;;;5.72;2.72;;;8.90;99.90;;;;;;2075130;28;20033;-72
2022/11/22 04:08:27;;;;;;;11.13;2.83;;;8.80;99.90;;;;;;2075602;28;20029;-72
2022/11/22 04:09:28;;;;;;;8.88;2.80;;;8.80;99.90;;;;;;2075865;28;20029;-72
2022/11/22 04:10:28;;;;;;;8.98;3.10;;;8.80;99.90;;;;;;2076441;28;20024;-72
2022/11/22 04:11:29;;;;;;;7.97;2.60;;;8.80;99.90;;;;;;2076946;28;20409;-72
2022/11/22 04:12:30;;;;;;;10.50;2.83;;;8.80;99.90;;;;;;2075302;28;20136;-72
2022/11/22 04:15:07;;;;;;;11.13;2.70;;;8.80;99.90;;;;;;2076601;28;20021;-72
2022/11/22 04:16:08;;;;;;;8.27;2.67;;;8.70;99.90;;;;;;2075594;28;20052;-72
2022/11/22 04:17:12;;;;;;;11.02;2.85;;;8.70;99.90;;;;;;2075835;28;20037;-72
2022/11/22 04:18:13;;;;;;;7.05;2.90;;;8.70;99.90;;;;;;2076963;28;20026;-72
2022/11/22 04:19:14;;;;;;;9.68;3.05;;;8.70;99.90;;;;;;2075339;28;20116;-72
2022/11/22 04:21:36;;;;;;;11.25;3.17;;;8.70;99.90;;;;;;2076377;28;20037;-72
2022/11/22 04:22:37;;;;;;;8.50;3.00;;;8.60;99.90;;;;;;2077427;28;20508;-72
2022/11/22 04:23:37;;;;;;;7.68;3.05;;;8.60;99.90;;;;;;2076908;28;20416;-72
2022/11/22 04:25:57;;;;;;;7.18;2.40;;;8.60;99.90;;;;;;2077118;28;20068;-72
2022/11/22 04:26:58;;;;;;;11.10;2.85;;;8.60;99.90;;;;;;2075242;28;20025;-72
2022/11/22 04:27:59;;;;;;;11.85;3.25;;;8.60;99.90;;;;;;2075783;28;20105;-72
2022/11/22 04:28:59;;;;;;;10.25;3.08;;;8.60;99.90;;;;;;2077267;28;20117;-72
2022/11/22 04:30:00;;;;;;;9.88;3.00;;;8.50;99.90;;;;;;2084958;28;20055;-72
2022/11/22 04:33:05;;;;;;;9.63;2.90;;;8.50;99.90;;;;;;2076001;28;20587;-72
2022/11/22 04:33:40;;;;;;;7.50;2.78;;;8.50;99.90;;;;;;2068596;28;20033;-71
2022/11/22 04:34:41;;;;;;;8.70;3.00;;;8.50;99.90;;;;;;2084179;28;20024;-71
2022/11/22 04:35:43;;;;;;;12.88;3.17;;;8.50;99.90;;;;;;2083696;28;20172;-71
2022/11/22 04:36:43;;;;;;;10.52;3.03;;;8.50;99.90;;;;;;2077169;28;20421;-71
2022/11/22 04:37:50;;;;;;;16.40;3.65;;;8.50;99.90;;;;;;2076887;28;20024;-71
2022/11/22 04:38:51;;;;;;;9.43;3.00;;;8.50;99.90;;;;;;2074741;28;20030;-71
2022/11/22 04:39:51;;;;;;;8.57;2.90;;;8.50;99.90;;;;;;2077936;28;20029;-71
2022/11/22 04:40:52;;;;;;;7.85;3.40;;;8.40;99.90;;;;;;2074994;28;20029;-71
2022/11/22 04:44:45;;;;;;;12.43;3.00;;;8.40;99.90;;;;;;2075533;28;20113;-71
2022/11/22 04:45:46;;;;;;;11.05;2.90;;;8.40;99.90;;;;;;2075575;28;20033;-71
2022/11/22 04:46:47;;;;;;;9.57;3.33;;;8.40;99.90;;;;;;2077200;28;20025;-71
2022/11/22 04:48:00;;;;;;;11.15;3.15;;;8.30;99.90;;;;;;2076350;28;20028;-71
2022/11/22 04:49:00;;;;;;;9.75;2.85;;;8.30;99.90;;;;;;2076544;28;20136;-71
2022/11/22 04:50:03;;;;;;;12.07;2.70;;;8.30;99.90;;;;;;2077139;28;20022;-71
2022/11/22 04:53:43;;;;;;;14.45;3.40;;;8.30;99.90;;;;;;2077442;28;20029;-71
2022/11/22 04:54:44;;;;;;;11.05;3.75;;;8.30;99.90;;;;;;2076546;28;20037;-71
2022/11/22 04:55:46;;;;;;;10.80;2.88;;;8.30;99.90;;;;;;2075996;28;20810;-71
2022/11/22 04:56:47;;;;;;;15.23;3.30;;;8.30;99.90;;;;;;2075595;28;20107;-71
2022/11/22 04:57:47;;;;;;;10.35;2.63;;;8.30;99.90;;;;;;2078980;28;20120;-71
2022/11/22 04:58:50;;;;;;;13.85;3.03;;;8.20;99.90;;;;;;2077898;28;20045;-71
2022/11/22 04:59:50;;;;;;;11.32;2.95;;;8.20;99.90;;;;;;2073322;28;20068;-71
2022/11/22 05:00:51;;;;;;;9.10;2.38;;;8.30;99.90;;;;;;2075276;28;20037;-71
2022/11/22 05:01:52;;;;;;;12.82;3.20;;;8.20;99.90;;;;;;2074155;28;20025;-71
2022/11/22 05:02:52;;;;;;;12.13;3.58;;;8.20;99.90;;;;;;2076593;28;20509;-71
2022/11/22 05:03:53;;;;;;;11.40;3.30;;;8.20;99.90;;;;;;2076400;28;20029;-71
2022/11/22 05:04:53;;;;;;;11.27;3.38;;;8.20;99.90;;;;;;2075390;28;20033;-71
2022/11/22 05:05:54;;;;;;;11.48;2.88;;;8.20;99.90;;;;;;2075895;28;20030;-71
2022/11/22 05:06:55;;;;;;;12.75;3.00;;;8.20;99.90;;;;;;2073767;28;20054;-71
2022/11/22 05:07:59;;;;;;;15.48;3.33;;;8.20;99.90;;;;;;2076946;28;20079;-71
2022/11/22 05:09:00;;;;;;;16.50;3.58;;;8.10;99.90;;;;;;2075864;28;20125;-71
2022/11/22 05:10:00;;;;;;;12.98;3.35;;;8.10;99.90;;;;;;2076139;28;20034;-71
2022/11/22 05:11:01;;;;;;;12.48;3.90;;;8.10;99.90;;;;;;2077145;28;20032;-71
2022/11/22 05:12:01;;;;;;;8.45;2.97;;;8.10;99.90;;;;;;2079155;28;20711;-71
2022/11/22 05:13:02;;;;;;;12.20;3.40;;;8.10;99.90;;;;;;2076251;28;20588;-71
2022/11/22 05:14:03;;;;;;;14.15;2.97;;;8.10;99.90;;;;;;2076682;28;20034;-71
2022/11/22 05:15:04;;;;;;;15.07;3.25;;;8.10;99.90;;;;;;2075388;28;20022;-71
2022/11/22 05:16:07;;;;;;;12.77;3.03;;;8.10;99.90;;;;;;2077969;28;20033;-71
2022/11/22 05:17:08;;;;;;;9.43;2.50;;;8.10;99.90;;;;;;2077882;28;20037;-71
2022/11/22 05:18:08;;;;;;;11.57;3.00;;;8.10;99.90;;;;;;2077887;28;20088;-71
2022/11/22 05:19:09;;;;;;;13.32;2.75;;;8.10;99.90;;;;;;2077853;28;20041;-71
2022/11/22 05:20:10;;;;;;;10.88;2.75;;;8.10;99.90;;;;;;2077343;28;20746;-71
2022/11/22 05:21:13;;;;;;;11.70;3.05;;;8.00;99.90;;;;;;2077754;28;20456;-71
2022/11/22 05:22:13;;;;;;;13.85;3.78;;;8.10;99.90;;;;;;2084778;28;20034;-71
2022/11/22 05:24:34;;;;;;;12.35;3.20;;;8.00;99.90;;;;;;2073505;28;20030;-71
2022/11/22 05:25:34;;;;;;;9.60;3.40;;;8.00;99.90;;;;;;2078028;28;20034;-71
2022/11/22 05:26:35;;;;;;;14.38;3.72;;;8.00;99.90;;;;;;2078399;28;20028;-71
2022/11/22 05:27:36;;;;;;;19.23;3.40;;;8.00;99.90;;;;;;2079093;28;20120;-71
2022/11/22 05:28:38;;;;;;;12.23;2.92;;;7.90;99.90;;;;;;2079681;28;20870;-71
2022/11/22 05:29:38;;;;;;;11.50;2.88;;;7.90;99.90;;;;;;2078797;28;20491;-71
2022/11/22 05:30:40;;;;;;;10.02;2.88;;;7.90;99.90;;;;;;2078424;28;20455;-71
2022/11/22 05:31:41;;;;;;;11.07;2.97;;;7.90;99.90;;;;;;2076434;28;20177;-71
2022/11/22 05:32:42;;;;;;;13.18;3.28;;;7.90;99.90;;;;;;2077257;28;20378;-71
2022/11/22 05:33:44;;;;;;;10.77;2.78;;;7.90;99.90;;;;;;2076687;28;20083;-71
2022/11/22 05:34:45;;;;;;;9.93;3.13;;;7.90;99.90;;;;;;2075953;28;20103;-71
2022/11/22 05:35:45;;;;;;;13.05;3.40;;;7.80;99.90;;;;;;2078930;28;20037;-71
2022/11/22 05:36:46;;;;;;;13.05;3.65;;;7.90;99.90;;;;;;2077991;28;20060;-71